createdAt,value
2023-06-28T00:03:18.642Z,12.17
2023-06-28T00:08:22.271Z,3.90
2023-06-28T00:13:25.220Z,6.03
2023-06-28T00:18:30.649Z,6.27
2023-06-28T00:23:34.013Z,3.83
2023-06-28T00:28:36.934Z,4.13
2023-06-28T00:33:39.763Z,3.70
2023-06-28T00:38:42.588Z,6.13
2023-06-28T00:43:45.368Z,5.83
2023-06-28T00:48:48.391Z,6.00
2023-06-28T00:53:51.229Z,7.93
2023-06-28T00:58:54.511Z,4.00
2023-06-28T01:03:58.133Z,3.67
2023-06-28T01:09:00.935Z,7.23
2023-06-28T01:14:04.567Z,5.97
2023-06-28T01:19:08.335Z,6.50
2023-06-28T01:24:11.955Z,3.43
2023-06-28T01:29:15.098Z,3.70
2023-06-28T01:34:18.452Z,5.20
2023-06-28T01:39:21.750Z,4.10
2023-06-28T01:44:25.027Z,3.63
2023-06-28T01:49:27.989Z,5.57
2023-06-28T01:54:33.329Z,5.87
2023-06-28T01:59:36.173Z,7.17
2023-06-28T02:04:38.964Z,5.37
2023-06-28T02:09:41.748Z,7.83
2023-06-28T02:14:44.584Z,4.57
2023-06-28T02:19:50.448Z,7.10
2023-06-28T02:24:53.384Z,9.63
2023-06-28T02:29:57.558Z,5.30
2023-06-28T02:35:00.373Z,4.20
2023-06-28T02:40:04.248Z,5.97
2023-06-28T02:45:07.740Z,5.63
2023-06-28T02:50:10.898Z,3.83
2023-06-28T02:55:13.853Z,6.83
2023-06-28T03:00:16.996Z,4.37
2023-06-28T03:05:19.912Z,4.83
2023-06-28T03:10:22.784Z,5.47
2023-06-28T03:15:25.740Z,5.03
2023-06-28T03:20:28.979Z,3.80
2023-06-28T03:25:32.227Z,3.60
2023-06-28T03:30:35.173Z,3.47
2023-06-28T03:35:37.999Z,4.27
2023-06-28T03:40:41.166Z,3.70
2023-06-28T03:45:44.280Z,4.07
2023-06-28T03:50:47.137Z,3.30
2023-06-28T03:55:50.034Z,4.80
2023-06-28T04:00:54.165Z,3.60
2023-06-28T04:05:57.006Z,4.73
2023-06-28T04:10:59.869Z,3.67
2023-06-28T04:16:02.749Z,5.20
2023-06-28T04:21:05.593Z,5.73
2023-06-28T04:26:08.447Z,4.33
2023-06-28T04:31:11.390Z,5.43
2023-06-28T04:36:14.324Z,3.83
2023-06-28T04:41:24.661Z,3.77
2023-06-28T04:46:28.251Z,4.00
2023-06-28T04:51:31.230Z,4.13
2023-06-28T04:56:34.304Z,3.67
2023-06-28T05:01:42.643Z,7.17
2023-06-28T05:06:45.567Z,3.93
2023-06-28T05:11:48.341Z,5.07
2023-06-28T05:16:51.186Z,6.80
2023-06-28T05:21:55.319Z,3.97
2023-06-28T05:26:58.179Z,4.77
2023-06-28T05:32:01.052Z,4.37
2023-06-28T05:37:04.247Z,7.30
2023-06-28T05:42:07.181Z,5.93
2023-06-28T05:47:10.042Z,4.90
2023-06-28T05:52:13.397Z,7.03
2023-06-28T05:57:16.273Z,6.60
2023-06-28T06:02:19.228Z,4.63
2023-06-28T06:07:22.426Z,4.77
2023-06-28T06:12:25.608Z,3.03
2023-06-28T06:17:28.507Z,5.70
2023-06-28T06:22:31.397Z,5.33
2023-06-28T06:27:34.515Z,3.97
2023-06-28T06:32:37.724Z,5.67
2023-06-28T06:37:40.719Z,4.13
2023-06-28T06:42:43.667Z,3.87
2023-06-28T06:47:47.137Z,4.63
2023-06-28T06:52:51.359Z,2.70
2023-06-28T06:57:54.236Z,6.77
2023-06-28T07:02:57.059Z,2.67
2023-06-28T07:07:59.972Z,4.27
2023-06-28T07:13:02.970Z,4.17
2023-06-28T07:18:06.255Z,4.40
2023-06-28T07:23:09.130Z,4.80
2023-06-28T07:28:11.968Z,4.57
2023-06-28T07:33:14.850Z,5.77
2023-06-28T07:38:20.049Z,4.03
2023-06-28T07:43:22.968Z,2.97
2023-06-28T07:48:26.677Z,3.57
2023-06-28T07:53:29.483Z,4.10
2023-06-28T07:58:32.340Z,5.77
2023-06-28T08:03:35.204Z,5.97
2023-06-28T08:08:38.079Z,4.43
2023-06-28T08:13:40.903Z,6.03
2023-06-28T08:18:43.800Z,4.67
2023-06-28T08:23:46.603Z,3.63
2023-06-28T08:28:58.560Z,4.33
2023-06-28T08:34:04.171Z,4.33
2023-06-28T08:39:07.136Z,4.50
2023-06-28T08:44:13.528Z,4.60
2023-06-28T08:49:16.814Z,5.00
2023-06-28T08:54:20.310Z,5.43
2023-06-28T08:59:23.258Z,5.03
2023-06-28T09:04:29.514Z,8.17
2023-06-28T09:09:32.829Z,2.50
2023-06-28T09:14:35.967Z,6.63
2023-06-28T09:19:39.343Z,3.37
2023-06-28T09:24:42.237Z,5.40
2023-06-28T09:29:45.040Z,3.20
2023-06-28T09:34:47.835Z,4.83
2023-06-28T09:39:50.685Z,6.73
2023-06-28T09:44:56.930Z,3.90
2023-06-28T09:50:02.797Z,5.83
2023-06-28T09:55:06.225Z,2.57
2023-06-28T10:00:09.897Z,4.37
2023-06-28T10:05:13.029Z,7.27
2023-06-28T10:10:15.972Z,4.30
2023-06-28T10:15:22.949Z,5.17
2023-06-28T10:20:25.855Z,6.37
2023-06-28T10:25:29.024Z,6.57
2023-06-28T10:30:32.152Z,6.60
2023-06-28T10:35:35.133Z,4.23
2023-06-28T10:40:38.785Z,5.07
2023-06-28T10:45:42.022Z,8.87
2023-06-28T10:50:45.286Z,3.47
2023-06-28T10:56:12.891Z,3.13
2023-06-28T11:01:44.329Z,4.57
2023-06-28T11:06:48.054Z,7.40
2023-06-28T11:11:57.326Z,4.77
2023-06-28T11:17:12.469Z,6.43
2023-06-28T11:22:17.578Z,4.37
2023-06-28T11:27:23.151Z,5.60
2023-06-28T11:32:30.284Z,6.40
2023-06-28T11:37:33.296Z,5.43
2023-06-28T11:42:36.860Z,5.73
2023-06-28T11:47:40.857Z,6.47
2023-06-28T11:52:48.220Z,6.10
2023-06-28T11:57:51.108Z,5.37
2023-06-28T12:02:53.996Z,5.27
2023-06-28T12:08:00.071Z,4.25
2023-06-28T12:13:03.211Z,3.03
2023-06-28T12:18:07.571Z,4.60
2023-06-28T12:23:14.057Z,3.70
2023-06-28T12:28:19.345Z,4.10
2023-06-28T12:33:24.473Z,2.87
2023-06-28T12:38:27.287Z,3.25
2023-06-28T12:43:31.467Z,3.83
2023-06-28T12:48:34.324Z,4.25
2023-06-28T12:53:37.155Z,3.33
2023-06-28T12:58:40.022Z,5.38
2023-06-28T13:03:43.037Z,4.25
2023-06-28T13:08:46.256Z,8.60
2023-06-28T13:13:49.266Z,10.95
2023-06-28T13:18:52.135Z,5.88
2023-06-28T13:23:54.977Z,6.80
2023-06-28T13:28:57.792Z,5.32
2023-06-28T13:34:00.634Z,4.53
2023-06-28T13:39:03.568Z,8.05
2023-06-28T13:44:06.495Z,7.60
2023-06-28T13:49:09.578Z,4.00
2023-06-28T13:54:15.526Z,5.40
2023-06-28T13:59:29.680Z,7.23
2023-06-28T14:04:37.512Z,3.50
2023-06-28T14:09:40.344Z,4.10
2023-06-28T14:14:43.629Z,2.53
2023-06-28T14:19:46.501Z,3.40
2023-06-28T14:24:50.277Z,4.53
2023-06-28T14:29:53.623Z,4.63
2023-06-28T14:34:56.430Z,6.30
2023-06-28T14:39:59.264Z,7.07
2023-06-28T14:45:02.160Z,7.27
2023-06-28T14:50:05.988Z,5.10
2023-06-28T14:55:09.704Z,5.67
2023-06-28T15:00:13.315Z,4.73
2023-06-28T15:05:16.333Z,6.80
2023-06-28T15:10:19.246Z,5.97
2023-06-28T15:15:23.885Z,5.30
2023-06-28T15:20:39.556Z,3.23
2023-06-28T15:25:43.776Z,5.13
2023-06-28T15:30:46.870Z,4.03
2023-06-28T15:35:49.824Z,5.43
2023-06-28T15:40:52.750Z,5.77
2023-06-28T15:45:55.575Z,4.33
2023-06-28T15:50:58.409Z,5.27
2023-06-28T15:56:01.282Z,5.80
2023-06-28T16:01:13.753Z,5.00
2023-06-28T16:06:16.772Z,3.07
2023-06-28T16:11:19.725Z,4.37
2023-06-28T16:16:22.632Z,4.43
2023-06-28T16:21:25.623Z,5.93
2023-06-28T16:26:28.924Z,6.57
2023-06-28T16:31:34.104Z,4.30
2023-06-28T16:36:41.965Z,6.10
2023-06-28T16:41:44.845Z,4.57
2023-06-28T16:46:50.312Z,6.57
2023-06-28T16:51:53.349Z,6.13
2023-06-28T16:56:56.234Z,9.73
2023-06-28T17:01:59.146Z,11.67
2023-06-28T17:07:03.245Z,5.67
2023-06-28T17:12:06.843Z,8.83
2023-06-28T17:17:09.696Z,6.40
2023-06-28T17:22:12.538Z,7.97
2023-06-28T17:27:16.469Z,7.77
2023-06-28T17:32:19.301Z,8.03
2023-06-28T17:37:22.147Z,8.03
2023-06-28T17:42:25.009Z,9.03
2023-06-28T17:47:27.909Z,6.10
2023-06-28T17:52:30.879Z,6.20
2023-06-28T17:57:33.773Z,8.50
2023-06-28T18:02:36.674Z,10.00
2023-06-28T18:07:39.928Z,7.97
2023-06-28T18:12:42.813Z,7.57
2023-06-28T18:17:45.800Z,7.40
2023-06-28T18:22:48.687Z,8.80
2023-06-28T18:27:51.496Z,6.83
2023-06-28T18:32:54.507Z,7.83
2023-06-28T18:37:57.521Z,8.20
2023-06-28T18:43:00.623Z,8.90
2023-06-28T18:48:04.166Z,7.60
2023-06-28T18:53:07.127Z,7.10
2023-06-28T18:58:10.656Z,8.80
2023-06-28T19:03:13.773Z,6.83
2023-06-28T19:08:16.734Z,7.60
2023-06-28T19:13:20.733Z,7.53
2023-06-28T19:18:26.827Z,9.93
2023-06-28T19:23:30.263Z,8.43
2023-06-28T19:28:33.435Z,9.30
2023-06-28T19:33:39.034Z,8.00
2023-06-28T19:38:41.886Z,8.40
2023-06-28T19:43:44.906Z,8.73
2023-06-28T19:48:48.295Z,7.00
2023-06-28T19:53:51.157Z,9.10
2023-06-28T19:58:56.132Z,8.83
2023-06-28T20:03:59.006Z,7.87
2023-06-28T20:09:04.117Z,9.53
2023-06-28T20:14:07.289Z,9.67
2023-06-28T20:19:10.504Z,8.57
2023-06-28T20:24:13.519Z,11.67
2023-06-28T20:29:16.432Z,9.73
2023-06-28T20:34:19.258Z,12.33
2023-06-28T20:39:22.114Z,10.73
2023-06-28T20:44:26.906Z,11.00
2023-06-28T20:49:35.685Z,11.43
2023-06-28T20:54:38.554Z,11.80
2023-06-28T20:59:41.345Z,15.93
2023-06-28T21:04:44.242Z,12.50
2023-06-28T21:09:47.197Z,20.83
2023-06-28T21:14:50.034Z,12.73
2023-06-28T21:19:53.053Z,12.77
2023-06-28T21:24:55.881Z,12.87
2023-06-28T21:29:58.738Z,19.70
2023-06-28T21:35:01.585Z,17.00
2023-06-28T21:40:04.942Z,15.83
2023-06-28T21:45:08.513Z,15.57
2023-06-28T21:50:11.465Z,15.47
2023-06-28T21:55:14.316Z,20.27
2023-06-28T22:00:25.292Z,20.30
2023-06-28T22:05:28.335Z,25.47
2023-06-28T22:10:31.220Z,27.33
2023-06-28T22:15:35.756Z,27.40
2023-06-28T22:20:40.550Z,25.07
2023-06-28T22:25:43.721Z,30.13
2023-06-28T22:30:46.866Z,36.23
2023-06-28T22:35:49.723Z,24.60
2023-06-28T22:40:52.523Z,30.40
2023-06-28T22:45:55.432Z,26.23
2023-06-28T22:51:01.136Z,34.10
2023-06-28T22:56:04.180Z,27.43
2023-06-28T23:01:07.034Z,27.47
2023-06-28T23:06:12.914Z,24.10
2023-06-28T23:11:15.932Z,21.03
2023-06-28T23:16:23.769Z,19.50
2023-06-28T23:21:26.620Z,19.90
2023-06-28T23:26:29.833Z,22.97
2023-06-28T23:31:32.829Z,21.87
2023-06-28T23:36:35.655Z,27.90
2023-06-28T23:41:40.429Z,26.50
2023-06-28T23:46:46.098Z,29.33
2023-06-28T23:51:49.643Z,31.80
2023-06-28T23:56:52.491Z,34.60
